sensor_id;sensor_type;location;lat;lon;timestamp;pressure;altitude;pressure_sealevel;temperature;humidity
39411;BME280;26579;43.238;23.124;2023-03-07T00:01:04;96163.88;;;10.02;46.96
39411;BME280;26579;43.238;23.124;2023-03-07T00:03:30;96149.94;;;9.93;47.45
39411;BME280;26579;43.238;23.124;2023-03-07T00:06:03;96138.97;;;10.00;47.22
39411;BME280;26579;43.238;23.124;2023-03-07T00:08:30;96131.50;;;9.77;48.39
39411;BME280;26579;43.238;23.124;2023-03-07T00:11:00;96134.09;;;9.77;47.59
39411;BME280;26579;43.238;23.124;2023-03-07T00:13:28;96137.41;;;9.69;48.29
39411;BME280;26579;43.238;23.124;2023-03-07T00:15:54;96136.97;;;9.74;48.45
39411;BME280;26579;43.238;23.124;2023-03-07T00:18:19;96122.38;;;9.53;48.79
39411;BME280;26579;43.238;23.124;2023-03-07T00:20:55;96130.97;;;9.73;48.46
39411;BME280;26579;43.238;23.124;2023-03-07T00:23:21;96134.94;;;9.68;48.83
39411;BME280;26579;43.238;23.124;2023-03-07T00:25:55;96124.56;;;9.58;49.00
39411;BME280;26579;43.238;23.124;2023-03-07T00:28:27;96131.41;;;9.59;49.10
39411;BME280;26579;43.238;23.124;2023-03-07T00:30:53;96142.47;;;9.61;49.11
39411;BME280;26579;43.238;23.124;2023-03-07T00:33:18;96121.03;;;9.49;49.69
39411;BME280;26579;43.238;23.124;2023-03-07T00:35:44;96132.38;;;9.48;49.97
39411;BME280;26579;43.238;23.124;2023-03-07T00:38:18;96106.81;;;9.44;50.40
39411;BME280;26579;43.238;23.124;2023-03-07T00:40:43;96093.41;;;9.48;48.61
39411;BME280;26579;43.238;23.124;2023-03-07T00:43:09;96100.25;;;9.49;49.79
39411;BME280;26579;43.238;23.124;2023-03-07T00:45:35;96107.34;;;9.47;50.04
39411;BME280;26579;43.238;23.124;2023-03-07T00:48:00;96112.41;;;9.59;48.74
39411;BME280;26579;43.238;23.124;2023-03-07T00:50:26;96078.09;;;9.45;48.73
39411;BME280;26579;43.238;23.124;2023-03-07T00:52:52;96086.66;;;9.65;47.97
39411;BME280;26579;43.238;23.124;2023-03-07T00:55:17;96085.16;;;9.63;49.51
39411;BME280;26579;43.238;23.124;2023-03-07T00:57:43;96069.84;;;9.60;49.31
39411;BME280;26579;43.238;23.124;2023-03-07T01:00:09;96075.03;;;9.69;48.83
39411;BME280;26579;43.238;23.124;2023-03-07T01:02:38;96084.25;;;9.91;48.49
39411;BME280;26579;43.238;23.124;2023-03-07T01:05:04;96070.72;;;9.88;48.78
39411;BME280;26579;43.238;23.124;2023-03-07T01:07:30;96072.75;;;9.94;47.48
39411;BME280;26579;43.238;23.124;2023-03-07T01:09:55;96057.38;;;10.10;47.14
39411;BME280;26579;43.238;23.124;2023-03-07T01:12:21;96047.56;;;9.94;48.21
39411;BME280;26579;43.238;23.124;2023-03-07T01:14:49;96071.91;;;10.03;48.41
39411;BME280;26579;43.238;23.124;2023-03-07T01:17:15;96073.09;;;10.09;47.56
39411;BME280;26579;43.238;23.124;2023-03-07T01:19:40;96077.19;;;10.21;46.38
39411;BME280;26579;43.238;23.124;2023-03-07T01:22:06;96077.00;;;10.32;46.48
39411;BME280;26579;43.238;23.124;2023-03-07T01:24:32;96056.91;;;10.15;47.33
39411;BME280;26579;43.238;23.124;2023-03-07T01:26:57;96075.66;;;10.28;47.33
39411;BME280;26579;43.238;23.124;2023-03-07T01:29:23;96071.50;;;10.35;47.57
39411;BME280;26579;43.238;23.124;2023-03-07T01:31:49;96070.25;;;10.39;47.57
39411;BME280;26579;43.238;23.124;2023-03-07T01:34:14;96060.19;;;10.27;47.82
39411;BME280;26579;43.238;23.124;2023-03-07T01:36:40;96061.94;;;10.26;48.03
39411;BME280;26579;43.238;23.124;2023-03-07T01:39:12;96067.94;;;10.36;47.41
39411;BME280;26579;43.238;23.124;2023-03-07T01:41:52;96059.75;;;10.31;47.21
39411;BME280;26579;43.238;23.124;2023-03-07T01:44:23;96057.69;;;10.35;44.35
39411;BME280;26579;43.238;23.124;2023-03-07T01:46:53;96041.78;;;10.56;43.10
39411;BME280;26579;43.238;23.124;2023-03-07T01:49:35;96029.84;;;10.63;43.41
39411;BME280;26579;43.238;23.124;2023-03-07T01:55:05;96054.97;;;10.90;43.83
39411;BME280;26579;43.238;23.124;2023-03-07T01:57:36;96042.72;;;10.82;43.53
39411;BME280;26579;43.238;23.124;2023-03-07T02:00:10;96047.53;;;10.95;43.97
39411;BME280;26579;43.238;23.124;2023-03-07T02:02:43;96061.31;;;10.87;43.98
39411;BME280;26579;43.238;23.124;2023-03-07T02:05:16;96070.69;;;10.80;44.17
39411;BME280;26579;43.238;23.124;2023-03-07T02:07:48;96066.88;;;10.75;44.46
39411;BME280;26579;43.238;23.124;2023-03-07T02:10:18;96072.47;;;10.80;44.79
39411;BME280;26579;43.238;23.124;2023-03-07T02:12:44;96070.25;;;10.85;44.78
39411;BME280;26579;43.238;23.124;2023-03-07T02:15:12;96071.19;;;10.84;45.44
39411;BME280;26579;43.238;23.124;2023-03-07T02:17:40;96082.31;;;10.86;45.09
39411;BME280;26579;43.238;23.124;2023-03-07T02:21:02;96086.53;;;10.87;44.70
39411;BME280;26579;43.238;23.124;2023-03-07T02:23:00;96064.22;;;10.84;43.91
39411;BME280;26579;43.238;23.124;2023-03-07T02:28:16;96086.47;;;10.97;44.82
39411;BME280;26579;43.238;23.124;2023-03-07T02:31:00;96081.53;;;10.94;45.39
39411;BME280;26579;43.238;23.124;2023-03-07T02:33:29;96094.56;;;10.94;45.78
39411;BME280;26579;43.238;23.124;2023-03-07T02:36:06;96091.53;;;10.80;45.74
39411;BME280;26579;43.238;23.124;2023-03-07T02:38:37;96081.19;;;10.71;45.37
39411;BME280;26579;43.238;23.124;2023-03-07T02:41:06;96093.97;;;10.82;46.19
39411;BME280;26579;43.238;23.124;2023-03-07T02:43:34;96091.88;;;10.68;46.94
39411;BME280;26579;43.238;23.124;2023-03-07T02:46:01;96109.06;;;10.78;45.13
39411;BME280;26579;43.238;23.124;2023-03-07T02:48:27;96106.97;;;10.82;44.64
39411;BME280;26579;43.238;23.124;2023-03-07T02:50:53;96113.69;;;10.84;45.28
39411;BME280;26579;43.238;23.124;2023-03-07T02:53:18;96119.56;;;10.86;44.79
39411;BME280;26579;43.238;23.124;2023-03-07T02:55:44;96114.94;;;10.80;45.05
39411;BME280;26579;43.238;23.124;2023-03-07T02:58:10;96113.69;;;10.84;45.51
39411;BME280;26579;43.238;23.124;2023-03-07T03:00:35;96124.63;;;10.88;45.53
39411;BME280;26579;43.238;23.124;2023-03-07T03:03:02;96120.00;;;10.82;45.66
39411;BME280;26579;43.238;23.124;2023-03-07T03:05:28;96107.28;;;10.79;46.48
39411;BME280;26579;43.238;23.124;2023-03-07T03:07:54;96105.56;;;10.70;45.37
39411;BME280;26579;43.238;23.124;2023-03-07T03:10:20;96117.84;;;10.77;45.30
39411;BME280;26579;43.238;23.124;2023-03-07T03:12:46;96100.06;;;10.73;45.58
39411;BME280;26579;43.238;23.124;2023-03-07T03:15:12;96103.41;;;10.65;45.21
39411;BME280;26579;43.238;23.124;2023-03-07T03:17:39;96105.16;;;10.64;45.65
39411;BME280;26579;43.238;23.124;2023-03-07T03:20:06;96118.44;;;10.71;46.11
39411;BME280;26579;43.238;23.124;2023-03-07T03:22:32;96111.56;;;10.70;46.39
39411;BME280;26579;43.238;23.124;2023-03-07T03:24:58;96116.13;;;10.68;46.27
39411;BME280;26579;43.238;23.124;2023-03-07T03:27:23;96107.84;;;10.55;46.49
39411;BME280;26579;43.238;23.124;2023-03-07T03:29:53;96125.19;;;10.64;46.52
39411;BME280;26579;43.238;23.124;2023-03-07T03:32:19;96106.44;;;10.60;45.93
39411;BME280;26579;43.238;23.124;2023-03-07T03:34:45;96124.06;;;10.67;46.68
39411;BME280;26579;43.238;23.124;2023-03-07T03:37:11;96123.69;;;10.61;46.71
39411;BME280;26579;43.238;23.124;2023-03-07T03:39:36;96116.03;;;10.60;47.25
39411;BME280;26579;43.238;23.124;2023-03-07T03:42:02;96104.84;;;10.50;47.10
39411;BME280;26579;43.238;23.124;2023-03-07T03:44:28;96102.53;;;10.47;47.17
39411;BME280;26579;43.238;23.124;2023-03-07T03:46:55;96109.75;;;10.53;47.77
39411;BME280;26579;43.238;23.124;2023-03-07T03:49:22;96107.50;;;10.40;48.46
39411;BME280;26579;43.238;23.124;2023-03-07T03:51:49;96109.53;;;10.46;47.37
39411;BME280;26579;43.238;23.124;2023-03-07T03:54:16;96110.50;;;10.45;47.93
39411;BME280;26579;43.238;23.124;2023-03-07T03:56:42;96106.28;;;10.34;47.42
39411;BME280;26579;43.238;23.124;2023-03-07T03:59:07;96103.00;;;10.32;48.59
39411;BME280;26579;43.238;23.124;2023-03-07T04:01:33;96109.88;;;10.33;48.72
39411;BME280;26579;43.238;23.124;2023-03-07T04:03:59;96108.28;;;10.13;48.67
39411;BME280;26579;43.238;23.124;2023-03-07T04:06:30;96108.56;;;10.10;49.00
39411;BME280;26579;43.238;23.124;2023-03-07T04:08:57;96122.88;;;10.24;49.36
39411;BME280;26579;43.238;23.124;2023-03-07T04:11:24;96116.31;;;10.19;48.59
39411;BME280;26579;43.238;23.124;2023-03-07T04:13:51;96131.34;;;10.26;48.58
39411;BME280;26579;43.238;23.124;2023-03-07T04:16:18;96125.09;;;10.28;48.87
39411;BME280;26579;43.238;23.124;2023-03-07T04:18:44;96118.63;;;10.23;48.72
39411;BME280;26579;43.238;23.124;2023-03-07T04:21:10;96130.59;;;10.06;49.43
39411;BME280;26579;43.238;23.124;2023-03-07T04:23:36;96110.94;;;9.93;50.42
39411;BME280;26579;43.238;23.124;2023-03-07T04:26:04;96120.88;;;10.08;49.75
39411;BME280;26579;43.238;23.124;2023-03-07T04:28:33;96122.50;;;10.09;50.19
39411;BME280;26579;43.238;23.124;2023-03-07T04:30:59;96131.72;;;10.03;49.47
39411;BME280;26579;43.238;23.124;2023-03-07T04:33:25;96128.16;;;10.04;50.55
39411;BME280;26579;43.238;23.124;2023-03-07T04:35:51;96134.91;;;9.87;50.62
39411;BME280;26579;43.238;23.124;2023-03-07T04:38:16;96131.41;;;9.69;50.83
39411;BME280;26579;43.238;23.124;2023-03-07T04:40:42;96130.72;;;9.67;51.45
39411;BME280;26579;43.238;23.124;2023-03-07T04:43:09;96128.63;;;9.80;50.46
39411;BME280;26579;43.238;23.124;2023-03-07T04:45:35;96142.88;;;9.76;51.30
39411;BME280;26579;43.238;23.124;2023-03-07T04:48:01;96143.13;;;9.83;51.14
39411;BME280;26579;43.238;23.124;2023-03-07T04:50:28;96122.91;;;9.67;51.31
39411;BME280;26579;43.238;23.124;2023-03-07T04:52:54;96132.06;;;9.71;50.09
39411;BME280;26579;43.238;23.124;2023-03-07T04:55:20;96133.84;;;9.70;50.18
39411;BME280;26579;43.238;23.124;2023-03-07T04:57:46;96135.38;;;9.63;51.36
39411;BME280;26579;43.238;23.124;2023-03-07T05:00:13;96122.38;;;9.63;50.68
39411;BME280;26579;43.238;23.124;2023-03-07T05:02:40;96129.63;;;9.69;49.47
39411;BME280;26579;43.238;23.124;2023-03-07T05:05:07;96139.00;;;9.80;50.12
39411;BME280;26579;43.238;23.124;2023-03-07T05:07:33;96132.75;;;9.73;50.73
39411;BME280;26579;43.238;23.124;2023-03-07T05:10:00;96126.72;;;9.63;50.77
39411;BME280;26579;43.238;23.124;2023-03-07T05:12:26;96140.56;;;9.63;50.80
39411;BME280;26579;43.238;23.124;2023-03-07T05:14:52;96126.19;;;9.59;51.51
39411;BME280;26579;43.238;23.124;2023-03-07T05:17:19;96153.13;;;9.68;50.86
39411;BME280;26579;43.238;23.124;2023-03-07T05:19:44;96152.19;;;9.69;50.93
39411;BME280;26579;43.238;23.124;2023-03-07T05:22:10;96149.41;;;9.80;51.13
39411;BME280;26579;43.238;23.124;2023-03-07T05:24:36;96146.00;;;9.80;50.55
39411;BME280;26579;43.238;23.124;2023-03-07T05:27:02;96140.00;;;9.79;51.18
39411;BME280;26579;43.238;23.124;2023-03-07T05:29:28;96139.47;;;9.66;51.18
39411;BME280;26579;43.238;23.124;2023-03-07T05:31:54;96153.81;;;9.80;50.82
39411;BME280;26579;43.238;23.124;2023-03-07T05:34:20;96131.78;;;9.74;50.95
39411;BME280;26579;43.238;23.124;2023-03-07T05:36:47;96142.34;;;9.72;51.08
39411;BME280;26579;43.238;23.124;2023-03-07T05:39:12;96158.44;;;9.86;50.85
39411;BME280;26579;43.238;23.124;2023-03-07T05:41:38;96145.59;;;9.84;50.43
39411;BME280;26579;43.238;23.124;2023-03-07T05:44:04;96151.97;;;10.00;50.30
39411;BME280;26579;43.238;23.124;2023-03-07T05:46:30;96162.78;;;10.05;50.83
39411;BME280;26579;43.238;23.124;2023-03-07T05:48:55;96166.59;;;10.10;50.28
39411;BME280;26579;43.238;23.124;2023-03-07T05:51:21;96145.50;;;10.13;50.15
39411;BME280;26579;43.238;23.124;2023-03-07T05:53:47;96156.44;;;10.27;50.14
39411;BME280;26579;43.238;23.124;2023-03-07T05:56:13;96156.66;;;10.43;48.58
39411;BME280;26579;43.238;23.124;2023-03-07T05:58:39;96142.16;;;10.40;48.26
39411;BME280;26579;43.238;23.124;2023-03-07T06:01:05;96155.59;;;10.63;47.70
39411;BME280;26579;43.238;23.124;2023-03-07T06:03:31;96153.19;;;10.80;47.42
39411;BME280;26579;43.238;23.124;2023-03-07T06:05:57;96160.22;;;10.97;46.71
39411;BME280;26579;43.238;23.124;2023-03-07T06:08:23;96161.47;;;11.11;46.11
39411;BME280;26579;43.238;23.124;2023-03-07T06:10:50;96174.38;;;11.30;45.21
39411;BME280;26579;43.238;23.124;2023-03-07T06:13:22;96165.94;;;11.37;45.07
39411;BME280;26579;43.238;23.124;2023-03-07T06:15:52;96172.56;;;11.49;44.88
39411;BME280;26579;43.238;23.124;2023-03-07T06:18:21;96173.81;;;11.81;44.28
39411;BME280;26579;43.238;23.124;2023-03-07T06:20:58;96173.50;;;11.84;44.01
39411;BME280;26579;43.238;23.124;2023-03-07T06:23:26;96155.84;;;11.95;43.57
39411;BME280;26579;43.238;23.124;2023-03-07T06:25:53;96177.09;;;12.00;42.84
39411;BME280;26579;43.238;23.124;2023-03-07T06:28:18;96165.81;;;12.26;42.06
39411;BME280;26579;43.238;23.124;2023-03-07T06:30:45;96141.50;;;12.52;41.37
39411;BME280;26579;43.238;23.124;2023-03-07T06:33:11;96170.78;;;12.72;41.06
39411;BME280;26579;43.238;23.124;2023-03-07T06:35:39;96175.41;;;12.86;40.94
39411;BME280;26579;43.238;23.124;2023-03-07T06:38:06;96164.69;;;13.13;40.29
39411;BME280;26579;43.238;23.124;2023-03-07T06:40:31;96177.84;;;13.38;40.09
39411;BME280;26579;43.238;23.124;2023-03-07T06:42:57;96168.16;;;14.29;38.38
39411;BME280;26579;43.238;23.124;2023-03-07T06:45:23;96176.72;;;14.70;37.50
39411;BME280;26579;43.238;23.124;2023-03-07T06:47:49;96178.50;;;15.63;36.76
39411;BME280;26579;43.238;23.124;2023-03-07T06:50:15;96173.66;;;17.53;33.78
39411;BME280;26579;43.238;23.124;2023-03-07T06:52:41;96173.31;;;19.71;30.26
39411;BME280;26579;43.238;23.124;2023-03-07T06:55:07;96172.47;;;20.77;28.05
39411;BME280;26579;43.238;23.124;2023-03-07T06:57:34;96170.53;;;21.04;27.68
39411;BME280;26579;43.238;23.124;2023-03-07T07:00:04;96172.44;;;21.67;26.18
39411;BME280;26579;43.238;23.124;2023-03-07T07:02:31;96173.31;;;20.51;26.89
39411;BME280;26579;43.238;23.124;2023-03-07T07:04:57;96171.50;;;19.98;27.88
39411;BME280;26579;43.238;23.124;2023-03-07T07:07:24;96172.47;;;18.96;28.92
39411;BME280;26579;43.238;23.124;2023-03-07T07:09:51;96186.19;;;17.72;30.48
39411;BME280;26579;43.238;23.124;2023-03-07T07:12:17;96193.31;;;16.99;31.83
39411;BME280;26579;43.238;23.124;2023-03-07T07:14:44;96196.25;;;16.37;33.26
39411;BME280;26579;43.238;23.124;2023-03-07T07:17:10;96186.84;;;15.90;34.16
39411;BME280;26579;43.238;23.124;2023-03-07T07:19:35;96191.38;;;15.50;35.39
39411;BME280;26579;43.238;23.124;2023-03-07T07:22:01;96188.53;;;15.05;35.13
39411;BME280;26579;43.238;23.124;2023-03-07T07:24:27;96184.25;;;14.73;35.83
39411;BME280;26579;43.238;23.124;2023-03-07T07:26:53;96179.72;;;14.50;36.51
39411;BME280;26579;43.238;23.124;2023-03-07T07:29:19;96180.25;;;14.30;36.98
39411;BME280;26579;43.238;23.124;2023-03-07T07:31:46;96179.13;;;14.16;37.45
39411;BME280;26579;43.238;23.124;2023-03-07T07:34:12;96184.03;;;14.11;37.34
39411;BME280;26579;43.238;23.124;2023-03-07T07:36:37;96190.28;;;14.10;37.29
39411;BME280;26579;43.238;23.124;2023-03-07T07:39:04;96179.13;;;14.08;37.63
39411;BME280;26579;43.238;23.124;2023-03-07T07:41:31;96179.94;;;14.33;37.14
39411;BME280;26579;43.238;23.124;2023-03-07T07:43:57;96178.06;;;15.82;33.79
39411;BME280;26579;43.238;23.124;2023-03-07T07:46:29;96181.19;;;16.01;33.62
39411;BME280;26579;43.238;23.124;2023-03-07T07:48:55;96158.22;;;16.33;33.57
39411;BME280;26579;43.238;23.124;2023-03-07T07:51:21;96161.66;;;16.48;32.59
39411;BME280;26579;43.238;23.124;2023-03-07T07:53:47;96165.59;;;16.82;32.35
39411;BME280;26579;43.238;23.124;2023-03-07T07:56:13;96150.41;;;16.98;31.31
39411;BME280;26579;43.238;23.124;2023-03-07T07:58:38;96155.59;;;16.92;31.03
39411;BME280;26579;43.238;23.124;2023-03-07T08:01:12;96166.41;;;16.38;31.86
39411;BME280;26579;43.238;23.124;2023-03-07T08:03:38;96178.03;;;17.09;31.80
39411;BME280;26579;43.238;23.124;2023-03-07T08:06:04;96152.41;;;17.76;29.95
39411;BME280;26579;43.238;23.124;2023-03-07T08:08:30;96144.63;;;18.45;28.89
39411;BME280;26579;43.238;23.124;2023-03-07T08:10:55;96168.38;;;18.80;28.51
39411;BME280;26579;43.238;23.124;2023-03-07T08:13:21;96161.88;;;19.37;27.61
39411;BME280;26579;43.238;23.124;2023-03-07T08:15:46;96165.00;;;19.81;29.65
39411;BME280;26579;43.238;23.124;2023-03-07T08:18:12;96155.22;;;20.54;27.91
39411;BME280;26579;43.238;23.124;2023-03-07T08:20:38;96139.69;;;21.23;27.09
39411;BME280;26579;43.238;23.124;2023-03-07T08:23:04;96149.06;;;21.89;25.95
39411;BME280;26579;43.238;23.124;2023-03-07T08:25:30;96163.75;;;21.60;25.34
39411;BME280;26579;43.238;23.124;2023-03-07T08:27:55;96152.03;;;21.42;24.46
39411;BME280;26579;43.238;23.124;2023-03-07T08:30:22;96134.66;;;21.15;26.60
39411;BME280;26579;43.238;23.124;2023-03-07T08:32:49;96153.63;;;20.33;26.56
39411;BME280;26579;43.238;23.124;2023-03-07T08:35:15;96151.94;;;19.53;27.53
39411;BME280;26579;43.238;23.124;2023-03-07T08:37:40;96157.13;;;19.06;28.46
39411;BME280;26579;43.238;23.124;2023-03-07T08:40:07;96161.66;;;19.45;28.39
39411;BME280;26579;43.238;23.124;2023-03-07T08:42:32;96143.88;;;20.01;26.74
39411;BME280;26579;43.238;23.124;2023-03-07T08:44:58;96153.63;;;20.20;26.46
39411;BME280;26579;43.238;23.124;2023-03-07T08:47:24;96138.06;;;20.84;25.72
39411;BME280;26579;43.238;23.124;2023-03-07T08:49:49;96147.81;;;21.28;25.37
39411;BME280;26579;43.238;23.124;2023-03-07T08:52:15;96134.00;;;21.64;24.41
39411;BME280;26579;43.238;23.124;2023-03-07T08:54:41;96137.50;;;21.83;24.24
39411;BME280;26579;43.238;23.124;2023-03-07T08:57:06;96120.69;;;22.21;23.83
39411;BME280;26579;43.238;23.124;2023-03-07T08:59:32;96138.09;;;22.54;23.24
39411;BME280;26579;43.238;23.124;2023-03-07T09:01:58;96127.06;;;22.38;23.24
39411;BME280;26579;43.238;23.124;2023-03-07T09:04:24;96132.91;;;21.72;24.11
39411;BME280;26579;43.238;23.124;2023-03-07T09:06:49;96143.13;;;21.37;24.38
39411;BME280;26579;43.238;23.124;2023-03-07T09:09:15;96139.94;;;21.85;24.28
39411;BME280;26579;43.238;23.124;2023-03-07T09:11:41;96134.31;;;22.25;24.04
39411;BME280;26579;43.238;23.124;2023-03-07T09:14:06;96136.44;;;21.91;23.84
39411;BME280;26579;43.238;23.124;2023-03-07T09:16:32;96132.38;;;21.88;24.08
39411;BME280;26579;43.238;23.124;2023-03-07T09:18:58;96108.59;;;21.82;24.34
39411;BME280;26579;43.238;23.124;2023-03-07T09:21:23;96135.97;;;21.69;24.62
39411;BME280;26579;43.238;23.124;2023-03-07T09:23:49;96131.09;;;21.66;23.77
39411;BME280;26579;43.238;23.124;2023-03-07T09:26:15;96132.31;;;21.70;23.96
39411;BME280;26579;43.238;23.124;2023-03-07T09:28:40;96126.97;;;21.77;23.67
39411;BME280;26579;43.238;23.124;2023-03-07T09:31:07;96136.03;;;22.12;23.74
39411;BME280;26579;43.238;23.124;2023-03-07T09:33:33;96138.91;;;22.11;23.93
39411;BME280;26579;43.238;23.124;2023-03-07T09:36:03;96132.63;;;22.30;23.50
39411;BME280;26579;43.238;23.124;2023-03-07T09:38:28;96138.31;;;22.34;23.17
39411;BME280;26579;43.238;23.124;2023-03-07T09:40:54;96135.00;;;22.13;23.00
39411;BME280;26579;43.238;23.124;2023-03-07T09:43:25;96119.94;;;21.89;23.24
39411;BME280;26579;43.238;23.124;2023-03-07T09:46:27;96126.44;;;22.36;23.46
39411;BME280;26579;43.238;23.124;2023-03-07T09:49:17;96131.56;;;22.93;22.32
39411;BME280;26579;43.238;23.124;2023-03-07T09:51:45;96132.00;;;22.72;22.80
39411;BME280;26579;43.238;23.124;2023-03-07T09:54:17;96124.22;;;22.95;22.21
39411;BME280;26579;43.238;23.124;2023-03-07T09:56:51;96119.91;;;23.13;21.79
39411;BME280;26579;43.238;23.124;2023-03-07T09:59:34;96109.88;;;22.59;22.26
39411;BME280;26579;43.238;23.124;2023-03-07T10:07:31;96113.63;;;22.89;22.38
39411;BME280;26579;43.238;23.124;2023-03-07T10:10:04;96104.34;;;22.98;22.71
39411;BME280;26579;43.238;23.124;2023-03-07T10:15:41;96096.88;;;23.25;21.66
39411;BME280;26579;43.238;23.124;2023-03-07T10:18:18;96101.75;;;23.40;21.37
39411;BME280;26579;43.238;23.124;2023-03-07T10:26:15;96067.06;;;22.74;22.12
39411;BME280;26579;43.238;23.124;2023-03-07T10:28:47;96074.47;;;22.17;22.75
39411;BME280;26579;43.238;23.124;2023-03-07T10:31:35;96094.19;;;22.21;22.52
39411;BME280;26579;43.238;23.124;2023-03-07T10:34:24;96092.56;;;21.45;23.31
39411;BME280;26579;43.238;23.124;2023-03-07T10:36:56;96095.34;;;20.73;24.69
39411;BME280;26579;43.238;23.124;2023-03-07T10:39:41;96072.25;;;20.35;24.63
39411;BME280;26579;43.238;23.124;2023-03-07T10:42:10;96079.03;;;19.98;25.38
39411;BME280;26579;43.238;23.124;2023-03-07T10:44:37;96084.56;;;19.70;25.96
39411;BME280;26579;43.238;23.124;2023-03-07T10:47:16;96071.72;;;19.34;26.62
39411;BME280;26579;43.238;23.124;2023-03-07T10:49:45;96078.38;;;19.10;26.79
39411;BME280;26579;43.238;23.124;2023-03-07T10:52:34;96081.34;;;18.73;27.02
39411;BME280;26579;43.238;23.124;2023-03-07T10:58:23;96080.53;;;18.38;28.25
39411;BME280;26579;43.238;23.124;2023-03-07T11:06:33;96071.50;;;17.84;29.21
39411;BME280;26579;43.238;23.124;2023-03-07T11:11:56;96067.06;;;17.42;29.28
39411;BME280;26579;43.238;23.124;2023-03-07T11:14:23;96050.94;;;17.24;29.56
39411;BME280;26579;43.238;23.124;2023-03-07T11:16:57;96053.25;;;17.12;29.88
39411;BME280;26579;43.238;23.124;2023-03-07T11:21:58;96049.44;;;16.93;30.21
39411;BME280;26579;43.238;23.124;2023-03-07T11:24:31;96050.00;;;16.88;30.40
39411;BME280;26579;43.238;23.124;2023-03-07T11:27:00;96034.88;;;16.75;31.00
39411;BME280;26579;43.238;23.124;2023-03-07T11:29:26;96044.91;;;16.87;30.20
39411;BME280;26579;43.238;23.124;2023-03-07T11:34:32;96034.53;;;16.79;30.25
39411;BME280;26579;43.238;23.124;2023-03-07T11:39:52;96013.22;;;16.73;29.31
39411;BME280;26579;43.238;23.124;2023-03-07T11:42:30;96023.28;;;17.06;29.53
39411;BME280;26579;43.238;23.124;2023-03-07T11:45:11;96018.69;;;17.15;29.57
39411;BME280;26579;43.238;23.124;2023-03-07T11:50:25;96004.94;;;17.41;29.44
39411;BME280;26579;43.238;23.124;2023-03-07T11:58:25;96010.88;;;17.50;28.49
39411;BME280;26579;43.238;23.124;2023-03-07T12:01:13;95992.13;;;17.59;28.45
39411;BME280;26579;43.238;23.124;2023-03-07T12:06:51;95989.72;;;17.64;28.74
39411;BME280;26579;43.238;23.124;2023-03-07T12:09:59;95989.94;;;17.63;28.45
39411;BME280;26579;43.238;23.124;2023-03-07T12:20:59;95951.88;;;17.31;29.20
39411;BME280;26579;43.238;23.124;2023-03-07T12:23:46;95953.28;;;17.61;28.66
39411;BME280;26579;43.238;23.124;2023-03-07T12:26:25;95959.16;;;17.63;28.78
39411;BME280;26579;43.238;23.124;2023-03-07T12:29:18;95968.03;;;17.62;28.44
39411;BME280;26579;43.238;23.124;2023-03-07T12:31:42;95968.03;;;17.62;28.62
39411;BME280;26579;43.238;23.124;2023-03-07T12:39:27;95961.06;;;17.48;28.38
39411;BME280;26579;43.238;23.124;2023-03-07T12:44:57;95947.69;;;17.43;28.53
39411;BME280;26579;43.238;23.124;2023-03-07T12:50:21;95943.00;;;17.38;28.65
39411;BME280;26579;43.238;23.124;2023-03-07T12:52:52;95932.31;;;17.40;28.94
39411;BME280;26579;43.238;23.124;2023-03-07T12:57:56;95930.53;;;17.54;28.37
39411;BME280;26579;43.238;23.124;2023-03-07T13:00:26;95935.81;;;17.54;28.57
39411;BME280;26579;43.238;23.124;2023-03-07T13:02:59;95936.47;;;17.62;28.73
39411;BME280;26579;43.238;23.124;2023-03-07T13:05:33;95935.91;;;17.67;28.89
39411;BME280;26579;43.238;23.124;2023-03-07T13:08:01;95941.81;;;17.76;28.49
39411;BME280;26579;43.238;23.124;2023-03-07T13:10:29;95940.19;;;17.75;29.19
39411;BME280;26579;43.238;23.124;2023-03-07T13:12:57;95920.66;;;17.62;27.90
39411;BME280;26579;43.238;23.124;2023-03-07T13:18:01;95935.38;;;17.50;28.25
39411;BME280;26579;43.238;23.124;2023-03-07T13:27:59;95941.13;;;17.04;29.42
39411;BME280;26579;43.238;23.124;2023-03-07T13:30:30;95934.13;;;17.11;30.74
39411;BME280;26579;43.238;23.124;2023-03-07T13:33:21;95938.06;;;17.22;30.85
39411;BME280;26579;43.238;23.124;2023-03-07T13:35:57;95941.94;;;17.33;30.51
39411;BME280;26579;43.238;23.124;2023-03-07T13:40:57;95943.31;;;17.22;29.47
39411;BME280;26579;43.238;23.124;2023-03-07T13:45:56;95924.38;;;17.05;28.00
39411;BME280;26579;43.238;23.124;2023-03-07T13:56:07;95935.41;;;17.22;28.01
39411;BME280;26579;43.238;23.124;2023-03-07T13:58:39;95941.25;;;17.17;27.45
39411;BME280;26579;43.238;23.124;2023-03-07T14:01:18;95933.72;;;17.14;27.77
39411;BME280;26579;43.238;23.124;2023-03-07T14:04:19;95933.13;;;17.19;27.53
39411;BME280;26579;43.238;23.124;2023-03-07T14:06:49;95940.09;;;17.27;27.74
39411;BME280;26579;43.238;23.124;2023-03-07T14:09:20;95918.63;;;17.23;27.69
39411;BME280;26579;43.238;23.124;2023-03-07T14:17:02;95929.06;;;17.45;27.44
39411;BME280;26579;43.238;23.124;2023-03-07T14:20:01;95931.56;;;17.53;27.52
39411;BME280;26579;43.238;23.124;2023-03-07T14:25:40;95928.78;;;17.61;28.18
39411;BME280;26579;43.238;23.124;2023-03-07T14:28:26;95935.25;;;17.58;27.36
39411;BME280;26579;43.238;23.124;2023-03-07T14:31:00;95926.03;;;17.41;27.45
39411;BME280;26579;43.238;23.124;2023-03-07T14:33:37;95935.69;;;17.34;28.11
39411;BME280;26579;43.238;23.124;2023-03-07T14:36:28;95931.56;;;17.25;27.97
39411;BME280;26579;43.238;23.124;2023-03-07T14:38:58;95939.53;;;17.31;28.24
39411;BME280;26579;43.238;23.124;2023-03-07T14:49:23;95934.41;;;17.23;29.45
39411;BME280;26579;43.238;23.124;2023-03-07T14:51:52;95940.47;;;17.24;29.24
39411;BME280;26579;43.238;23.124;2023-03-07T14:54:21;95937.38;;;17.13;30.18